createdAt,value
2022-12-31T00:05:03.020Z,21.87
2022-12-31T00:10:07.484Z,23.30
2022-12-31T00:15:11.336Z,23.17
2022-12-31T00:20:15.156Z,25.00
2022-12-31T00:25:19.137Z,20.80
2022-12-31T00:30:24.603Z,31.00
2022-12-31T00:35:28.766Z,26.87
2022-12-31T00:40:32.751Z,27.57
2022-12-31T00:45:36.468Z,24.33
2022-12-31T00:50:41.727Z,25.03
2022-12-31T00:55:45.537Z,27.23
2022-12-31T01:00:49.519Z,27.03
2022-12-31T01:05:53.551Z,28.57
2022-12-31T01:11:15.747Z,28.00
2022-12-31T01:16:22.954Z,25.63
2022-12-31T01:21:26.767Z,26.77
2022-12-31T01:26:30.466Z,19.43
2022-12-31T01:31:35.280Z,24.90
2022-12-31T01:36:39.448Z,19.43
2022-12-31T01:41:45.558Z,20.47
2022-12-31T01:46:54.689Z,20.83
2022-12-31T01:52:19.077Z,18.03
2022-12-31T01:57:25.015Z,20.97
2022-12-31T02:02:29.079Z,18.60
2022-12-31T02:07:33.575Z,21.97
2022-12-31T02:12:37.507Z,25.17
2022-12-31T02:18:16.803Z,18.93
2022-12-31T02:23:47.349Z,14.57
2022-12-31T02:29:04.585Z,16.77
2022-12-31T02:34:19.115Z,17.83
2022-12-31T02:39:22.826Z,17.77
2022-12-31T02:44:31.704Z,16.37
2022-12-31T02:50:11.903Z,16.27
2022-12-31T02:55:35.876Z,15.93
2022-12-31T03:01:12.981Z,15.00
2022-12-31T03:06:17.009Z,15.10
2022-12-31T03:11:40.806Z,13.70
2022-12-31T03:16:44.523Z,14.83
2022-12-31T03:22:06.533Z,13.50
2022-12-31T03:27:10.276Z,18.40
2022-12-31T03:32:13.864Z,16.43
2022-12-31T03:37:17.517Z,14.33
2022-12-31T03:42:21.251Z,13.37
2022-12-31T03:47:25.045Z,15.90
2022-12-31T03:52:28.718Z,15.97
2022-12-31T03:57:33.770Z,12.73
2022-12-31T04:02:38.005Z,13.83
2022-12-31T04:07:43.077Z,12.97
2022-12-31T04:12:47.357Z,12.53
2022-12-31T04:17:51.256Z,13.03
2022-12-31T04:22:55.139Z,16.70
2022-12-31T04:27:58.763Z,14.17
2022-12-31T04:33:02.438Z,16.27
2022-12-31T04:38:06.288Z,14.77
2022-12-31T04:43:10.057Z,12.83
2022-12-31T04:48:13.797Z,10.23
2022-12-31T04:53:17.537Z,11.87
2022-12-31T04:58:21.467Z,12.57
2022-12-31T05:03:26.851Z,11.93
2022-12-31T05:08:30.735Z,12.63
2022-12-31T05:13:34.835Z,12.03
2022-12-31T05:18:38.736Z,9.00
2022-12-31T05:23:42.518Z,7.70
2022-12-31T05:28:46.395Z,9.60
2022-12-31T05:33:50.254Z,10.20
2022-12-31T05:38:53.825Z,8.87
2022-12-31T05:43:57.556Z,8.20
2022-12-31T05:49:01.522Z,11.47
2022-12-31T05:54:05.303Z,9.70
2022-12-31T05:59:08.857Z,9.60
2022-12-31T06:04:12.637Z,9.40
2022-12-31T06:09:17.789Z,7.60
2022-12-31T06:14:21.775Z,10.90
2022-12-31T06:19:25.426Z,9.80
2022-12-31T06:24:29.295Z,7.97
2022-12-31T06:29:33.015Z,8.03
2022-12-31T06:34:36.808Z,7.47
2022-12-31T06:39:40.456Z,9.63
2022-12-31T06:44:44.597Z,8.37
2022-12-31T06:49:48.299Z,9.37
2022-12-31T06:54:52.385Z,7.40
2022-12-31T06:59:56.516Z,10.67
2022-12-31T07:05:03.379Z,11.33
2022-12-31T07:10:40.264Z,11.83
2022-12-31T07:16:19.023Z,11.20
2022-12-31T07:21:34.404Z,9.30
2022-12-31T07:26:57.115Z,6.63
2022-12-31T07:32:37.989Z,9.10
2022-12-31T07:38:05.365Z,12.07
2022-12-31T07:43:17.681Z,12.23
2022-12-31T07:48:27.041Z,9.30
2022-12-31T07:53:31.226Z,8.63
2022-12-31T07:58:41.257Z,10.63
2022-12-31T08:03:57.376Z,8.43
2022-12-31T08:09:23.637Z,9.93
2022-12-31T08:14:27.917Z,11.87
2022-12-31T08:19:33.668Z,8.03
2022-12-31T08:25:08.905Z,8.60
2022-12-31T08:30:19.776Z,8.03
2022-12-31T08:35:31.446Z,7.83
2022-12-31T08:41:00.014Z,8.70
2022-12-31T08:46:07.493Z,7.37
2022-12-31T08:51:26.642Z,8.10
2022-12-31T08:56:46.012Z,6.87
2022-12-31T09:02:09.564Z,8.33
2022-12-31T09:07:14.651Z,6.77
2022-12-31T09:12:38.756Z,7.77
2022-12-31T09:17:47.454Z,8.77
2022-12-31T09:22:52.135Z,8.03
2022-12-31T09:28:18.256Z,9.00
2022-12-31T09:33:41.311Z,7.33
2022-12-31T09:39:09.215Z,7.87
2022-12-31T09:44:29.749Z,8.70
2022-12-31T09:49:35.008Z,7.37
2022-12-31T09:54:55.605Z,7.33
2022-12-31T10:00:13.066Z,5.93
2022-12-31T10:05:29.157Z,8.20
2022-12-31T10:10:46.646Z,9.67
2022-12-31T10:16:05.427Z,8.67
2022-12-31T10:21:48.985Z,7.93
2022-12-31T10:26:58.711Z,7.27
2022-12-31T10:32:17.921Z,8.37
2022-12-31T10:37:40.678Z,7.73
2022-12-31T10:43:02.372Z,9.10
2022-12-31T10:48:22.733Z,9.10
2022-12-31T10:53:32.642Z,7.30
2022-12-31T10:59:02.830Z,8.00
2022-12-31T11:04:33.675Z,8.63
2022-12-31T11:09:43.388Z,6.33
2022-12-31T11:15:16.815Z,10.10
2022-12-31T11:20:34.307Z,6.53
2022-12-31T11:25:55.285Z,7.30
2022-12-31T11:31:17.367Z,5.73
2022-12-31T11:36:37.988Z,8.30
2022-12-31T11:41:54.105Z,7.77
2022-12-31T11:47:00.901Z,5.33
2022-12-31T11:52:19.548Z,8.27
2022-12-31T11:57:52.057Z,5.43
2022-12-31T12:03:02.848Z,7.60
2022-12-31T12:08:08.854Z,8.20
2022-12-31T12:13:23.176Z,6.10
2022-12-31T12:18:37.764Z,6.97
2022-12-31T12:23:43.345Z,8.30
2022-12-31T12:28:47.246Z,6.27
2022-12-31T12:33:52.539Z,7.40
2022-12-31T12:39:04.887Z,4.57
2022-12-31T12:44:16.107Z,4.30
2022-12-31T12:49:33.274Z,4.13
2022-12-31T12:54:55.854Z,3.53
2022-12-31T13:00:24.152Z,4.23
2022-12-31T13:05:56.489Z,3.20
2022-12-31T13:11:22.444Z,5.13
2022-12-31T13:16:43.495Z,4.90
2022-12-31T13:22:18.341Z,2.70
2022-12-31T13:27:39.645Z,3.70
2022-12-31T13:32:53.176Z,3.90
2022-12-31T13:38:14.512Z,2.83
2022-12-31T13:43:45.771Z,2.37
2022-12-31T13:49:04.751Z,2.43
2022-12-31T13:54:33.040Z,3.27
2022-12-31T13:59:42.705Z,3.43
2022-12-31T14:05:00.686Z,3.33
2022-12-31T14:10:12.190Z,3.70
2022-12-31T14:15:33.562Z,5.37
2022-12-31T14:20:52.532Z,5.30
2022-12-31T14:26:15.113Z,2.90
2022-12-31T14:31:56.013Z,4.67
2022-12-31T14:37:08.694Z,5.20
2022-12-31T14:42:34.747Z,4.17
2022-12-31T14:47:58.709Z,4.10
2022-12-31T14:53:06.758Z,3.30
2022-12-31T14:58:38.489Z,4.03
2022-12-31T15:03:48.965Z,3.87
2022-12-31T15:09:17.205Z,5.87
2022-12-31T15:14:23.542Z,3.30
2022-12-31T15:19:45.736Z,2.90
2022-12-31T15:24:49.848Z,4.07
2022-12-31T15:29:53.581Z,3.90
2022-12-31T15:35:22.916Z,3.10
2022-12-31T15:40:26.625Z,5.77
2022-12-31T15:45:40.017Z,4.17
2022-12-31T15:50:46.186Z,3.93
2022-12-31T15:55:54.175Z,5.00
2022-12-31T16:01:10.697Z,4.60
2022-12-31T16:06:16.873Z,4.43
2022-12-31T16:11:20.296Z,5.00
2022-12-31T16:16:30.042Z,4.00
2022-12-31T16:21:40.145Z,4.80
2022-12-31T16:26:50.066Z,6.43
2022-12-31T16:31:55.453Z,7.87
2022-12-31T16:37:05.202Z,6.90
2022-12-31T16:42:15.239Z,9.80
2022-12-31T16:47:22.044Z,9.87
2022-12-31T16:52:33.446Z,14.23
2022-12-31T16:57:37.894Z,19.57
2022-12-31T17:02:44.572Z,12.90
2022-12-31T17:07:49.258Z,9.83
2022-12-31T17:18:39.536Z,15.80
2022-12-31T17:23:50.559Z,35.73
2022-12-31T17:28:57.167Z,20.77
2022-12-31T17:34:23.517Z,24.00
2022-12-31T17:39:33.703Z,13.87
2022-12-31T17:44:40.443Z,12.80
2022-12-31T17:49:47.578Z,9.73
2022-12-31T17:54:51.406Z,10.43
2022-12-31T17:59:55.446Z,10.13
2022-12-31T18:04:59.256Z,6.50
2022-12-31T18:10:03.325Z,6.10
2022-12-31T18:15:08.330Z,5.07
2022-12-31T18:20:13.518Z,6.67
2022-12-31T18:25:23.400Z,6.70
2022-12-31T18:30:27.833Z,5.10
2022-12-31T18:40:58.852Z,6.77
2022-12-31T18:46:02.484Z,19.53
2022-12-31T18:51:06.206Z,59.57
2022-12-31T18:56:15.636Z,40.73
2022-12-31T19:01:30.021Z,37.73
2022-12-31T19:06:33.794Z,22.17
2022-12-31T19:11:39.450Z,21.83
2022-12-31T19:16:43.493Z,14.90
2022-12-31T19:21:51.204Z,8.60
2022-12-31T19:27:03.711Z,10.13
2022-12-31T19:32:12.654Z,9.13
2022-12-31T19:37:20.013Z,8.30
2022-12-31T19:42:24.182Z,17.93
2022-12-31T19:47:27.993Z,11.73
2022-12-31T19:52:31.896Z,8.90
2022-12-31T19:57:38.406Z,6.33
2022-12-31T20:02:44.104Z,6.60
2022-12-31T20:07:48.182Z,6.97
2022-12-31T20:12:51.758Z,5.70
2022-12-31T20:18:00.478Z,5.73
2022-12-31T20:23:04.582Z,5.20
2022-12-31T20:28:08.412Z,6.60
2022-12-31T20:33:15.838Z,5.00
2022-12-31T20:38:22.833Z,6.63
2022-12-31T20:43:30.545Z,8.60
2022-12-31T20:48:34.311Z,6.33
2022-12-31T20:53:38.230Z,5.13
2022-12-31T20:58:42.205Z,9.70
2022-12-31T21:04:05.543Z,5.73
2022-12-31T21:09:14.944Z,7.93
2022-12-31T21:14:19.901Z,10.30
2022-12-31T21:19:24.427Z,7.17
2022-12-31T21:24:28.555Z,4.70
2022-12-31T21:29:34.956Z,6.23
2022-12-31T21:34:41.704Z,5.77
2022-12-31T21:39:45.904Z,4.47
2022-12-31T21:44:49.693Z,5.53
2022-12-31T21:49:55.455Z,5.50
2022-12-31T21:55:20.555Z,4.90
2022-12-31T22:00:46.136Z,6.27
2022-12-31T22:06:03.635Z,6.37
2022-12-31T22:11:14.121Z,4.90
2022-12-31T22:16:21.159Z,4.17
2022-12-31T22:21:26.373Z,3.80
2022-12-31T22:26:35.547Z,5.13
2022-12-31T22:32:05.280Z,4.73
2022-12-31T22:37:35.668Z,6.03
2022-12-31T22:43:00.355Z,5.53
2022-12-31T22:48:09.448Z,7.00
2022-12-31T22:53:17.331Z,4.63
2022-12-31T22:58:25.450Z,5.10
2022-12-31T23:03:30.179Z,8.97
2022-12-31T23:08:34.476Z,6.00
2022-12-31T23:14:05.219Z,6.07
2022-12-31T23:19:28.334Z,7.67
2022-12-31T23:24:32.417Z,6.73
2022-12-31T23:29:49.901Z,5.13
2022-12-31T23:34:56.438Z,5.20
2022-12-31T23:40:00.305Z,4.17
2022-12-31T23:45:09.043Z,5.30
2022-12-31T23:50:12.815Z,5.60
2022-12-31T23:55:16.806Z,6.10
